EGJJ

Jersey Airport

Saint Helier, Jersey
METAR EGJJ 182120Z AUTO 27007KT CAVOK 16/14 Q1024
Observed Flight Rules
Aug-18 @ 21:20 UTC (35 minutes ago) Visual Flight Rules
Wind Visibility Clouds
270° at 7 knots 10,000+ meters
  • Clear skies
Temperatures Readings
Current 16°C / 61°F
Dewpoint 14°C / 57°F
Humidity 88%
Altimeter 30.24" Hg
Pressure 1024 hPa
Elevation 84
METAR EGJJ 182120Z AUTO 27007KT CAVOK 16/14 Q1024
Observed Flight Rules
Aug-18 @ 21:20 UTC
(35 minutes ago)
VFR
Wind Visibility
270° at 7 knots 10,000+ meters
Clouds
  • Clear skies
Temperature Dewpoint
16°C / 61°F 14°C / 57°F
Humidity Altimeter Pressure
88% 30.24" Hg 1024 hPa